ARCT2: Red River, ARthur City

Data processed at Tue May 21 2019 23:50


All information presented herein is the property of the government of the United States of America and may be revised or deleted at any time without prior notice.
Dissemination of this information without the expressed written consent of the Public Affairs Office, Tulsa District U.S. Army Corps of Engineers is strictly prohibited.
These data are gathered electronically and, as presented, have not undergone any form of quality control. These data are not guaranteed to be valid or correct.
Go to home page.
Go to station list.
Go to home page.

Upstream stations:

Downstream station:
Previous Day
Next Day
Current Day
    
SHEF ID:       ARCT2     Red River at Arthur City, TX
STATION TYPE:  
Regulating: Stage =    27.00, Flow =    85822

               PRECIP     STAGE  STAGE(2)  RIV-FLOW  BAT-LOAD
                   in        ft        ft       cfs      volt
              Ccp-Rev   Ccp-Rev   Ccp-Rev   Ccp-Rev   Ccp-Rev
(US/Central)
05/21 00:00      0.00     20.10     20.05     45674     12.65
05/21 01:00      0.00     20.18     20.14     46050     12.65
05/21 02:00      0.00     20.30     20.25     46617     12.57
05/21 03:00      0.00     20.39     20.30     47045     12.57
05/21 04:00      0.00     20.43     20.39     47235     12.57
05/21 05:00      0.00     20.55     20.42     47810     12.57
05/21 06:00      0.00     20.56     20.51     47858     12.57
05/21 07:00      0.00     20.62     20.59     48146     12.57
05/21 08:00      0.00     20.67     20.59     48387     12.65
05/21 09:00      0.00     20.70     20.59     48532     13.29
05/21 10:00      0.82     20.81     20.76     49066     12.89
05/21 11:00      0.00     20.82     20.76     49114     13.13
05/21 12:00      0.00     20.84     20.77     49212     13.37
05/21 13:00      0.00     20.87     20.77     49358     13.21
05/21 14:00      0.04     20.89     20.79     49456     13.13
05/21 15:00      0.00     20.89     20.78     49456     13.29
05/21 16:00      0.00     20.88     20.81     49407     13.21
05/21 17:00      0.00     20.87     20.82     49358     13.29
05/21 18:00      0.00     20.87     20.74     49358     13.60
05/21 19:00      0.00     20.89     20.69     49456     12.97
05/21 20:00      0.00     20.85     20.79     49261     12.97
05/21 21:00      0.00     20.83     20.76     49163     12.65
05/21 22:00      0.00     20.82     20.74     49114     12.65
05/21 23:00      0.00     20.80     20.67     49017     12.65